Baldwin City, KS (66006)

6:50 AM CDT on October 20, 2019 (GMT -0500)
Baldwin City | | Change Station
Active Advisory: Dense Fog Advisory

Elev 1030 ft 38.77 °N, 95.18 °W | Updated 22 seconds ago

Fog
Fog
43.9 °F
Feels Like 44 °F
N
0
Wind Variable Wind from East
Gusts 0.0 mph

Today
High -- | Low -- °F
--% Chance of Precip.
Yesterday
High -- | Low -- °F
Precip. -- in
Pressure 29.84 in
Visibility 0.2 miles
Clouds
Windchill 44 °F
Dew Point 44 °F
Humidity 99%
Rainfall 0.01 in
Snow Depth Not available.
7:34 AM 6:35 PM
Waning Gibbous, 61% visible
METAR KIXD 201053Z 00000KT 1/4SM FG VV001 06/06 A2984 RMK AO2 SLP103 T00610056
Pressure 29.84 in
Visibility 0.2 miles
Clouds
Windchill 44 °F
Dew Point 44 °F
Humidity 99%
Rainfall 0.01 in
Snow Depth Not available.
7:34 AM 6:35 PM
Waning Gibbous, 61% visible
METAR KIXD 201053Z 00000KT 1/4SM FG VV001 06/06 A2984 RMK AO2 SLP103 T00610056

Get Your Daily Forecast Email!

Thanks for signing up!

Be on the lookout for a verification email in your inbox.

You'll start receiving severe weather alerts in your inbox..

×

10-Day Weather Forecast

Almanac

Astronomy

Oct. 20, 2019 Rise Set
Actual Time
Civil Twilight
Nautical Twilight
Astronomical Twilight
Moon
Length of Visible Light
Length of Day
Tomorrow will be .
, % of the Moon is Illuminated

Today's Extremes

State Highs State Lows

Community

WunderPhotos

Category 6

Welcome to Category 6. This is the collective home for Weather Underground's featured writeups by Dr. Jeff Masters (right), Bob Henson (left), Chris Burt, and other regular contributors.

Nearby

Air Quality

  Air Quality AQ Index Pollutant
Not available.

Snow Depth

Station Depth Elevation

Earthquake Activity

City Distance Mag. Time & Date
Minimum magnitude displayed is 2.5.

Coastal Water Temperatures

Place Temperature

Stations

Nearby Weather Stations

Station Location Temp. Windchill Dew Point Humidity Wind Precip. Elev Updated Type
                   

Watches & Warnings

Dense Fog Advisory
Issued: 6:02 AM CDT Oct. 20, 2019 – National Weather Service

... Dense fog advisory in effect until 10 am CDT this morning...

The National Weather Service in Topeka has issued a dense fog
advisory, which is in effect until 10 am CDT this morning.

* Visibility... quarter of a mile or less.

* Impacts... hazardous driving conditions due to low visibility.

Precautionary/preparedness actions...

A dense fog advisory means visibilities will frequently be
reduced to less than one quarter mile. If driving, slow down, use
your headlights, and leave plenty of distance ahead of you.